Weather at Olinda (DSE) Helibase

Public forecast

Using degrees Celsius for public forecast. Weather courtesy of forecast.io.

Closest aviation weather report (METAR) to Olinda (DSE) Helibase

Closest report is Melbourne International Airport, 27.7 nm (51.3 km) WNW.

2024/05/29 12:08 (retrieved 22 minutes ago)

YMML 291208Z 01028G38KT CAVOK 15/06 Q1018

Closest aviation forecast (TAF) to Olinda (DSE) Helibase

Closest forecast is Melbourne International Airport, 27.7 nm (51.3 km) WNW.

2024/05/29 12:18 Ammendment (retrieved 12 minutes ago)

TAF AMD YMML 291213Z 2912/3018 01026G36KT CAVOK FM291300 02014KT CAVOK FM291700 01015G26KT 9999 FEW015 FM292200 01020G38KT CAVOK FM300600 36014KT 9999 -RA SCT020 SCT040 FM301400 30012KT 9999 NSW SCT025 INTER 3006/3014 33020G30KT 6000 RA BKN040